sensor_id;sensor_type;location;lat;lon;timestamp;temperature;humidity
2226;DHT22;1119;48.288;8.726;2023-04-07T00:02:15;6.50;99.90
2226;DHT22;1119;48.288;8.726;2023-04-07T00:05:03;6.50;99.90
2226;DHT22;1119;48.288;8.726;2023-04-07T00:07:51;6.40;99.90
2226;DHT22;1119;48.288;8.726;2023-04-07T00:10:39;6.40;99.90
2226;DHT22;1119;48.288;8.726;2023-04-07T00:13:27;6.30;99.90
2226;DHT22;1119;48.288;8.726;2023-04-07T00:16:16;6.30;99.90
2226;DHT22;1119;48.288;8.726;2023-04-07T00:19:03;6.30;99.90
2226;DHT22;1119;48.288;8.726;2023-04-07T00:21:51;6.20;99.90
2226;DHT22;1119;48.288;8.726;2023-04-07T00:24:39;6.20;99.90
2226;DHT22;1119;48.288;8.726;2023-04-07T00:27:27;6.20;99.90
2226;DHT22;1119;48.288;8.726;2023-04-07T00:30:14;6.20;99.90
2226;DHT22;1119;48.288;8.726;2023-04-07T00:33:04;6.20;99.90
2226;DHT22;1119;48.288;8.726;2023-04-07T00:35:51;6.20;99.90
2226;DHT22;1119;48.288;8.726;2023-04-07T00:38:39;6.30;99.90
2226;DHT22;1119;48.288;8.726;2023-04-07T00:41:27;6.20;99.90
2226;DHT22;1119;48.288;8.726;2023-04-07T00:44:15;6.20;99.90
2226;DHT22;1119;48.288;8.726;2023-04-07T00:47:02;6.30;99.90
2226;DHT22;1119;48.288;8.726;2023-04-07T00:49:52;6.30;99.90
2226;DHT22;1119;48.288;8.726;2023-04-07T00:52:39;6.30;99.90
2226;DHT22;1119;48.288;8.726;2023-04-07T00:55:27;6.40;99.90
2226;DHT22;1119;48.288;8.726;2023-04-07T00:58:15;6.40;99.90
2226;DHT22;1119;48.288;8.726;2023-04-07T01:01:07;6.40;99.90
2226;DHT22;1119;48.288;8.726;2023-04-07T01:04:00;6.30;99.90
2226;DHT22;1119;48.288;8.726;2023-04-07T01:06:53;6.30;99.90
2226;DHT22;1119;48.288;8.726;2023-04-07T01:09:56;6.40;99.90
2226;DHT22;1119;48.288;8.726;2023-04-07T01:12:53;6.50;99.90
2226;DHT22;1119;48.288;8.726;2023-04-07T01:15:48;6.50;99.90
2226;DHT22;1119;48.288;8.726;2023-04-07T01:18:43;6.60;99.90
2226;DHT22;1119;48.288;8.726;2023-04-07T01:21:35;6.60;99.90
2226;DHT22;1119;48.288;8.726;2023-04-07T01:24:45;6.60;99.90
2226;DHT22;1119;48.288;8.726;2023-04-07T01:27:53;6.70;99.90
2226;DHT22;1119;48.288;8.726;2023-04-07T01:30:49;6.70;99.90
2226;DHT22;1119;48.288;8.726;2023-04-07T01:33:39;6.60;99.90
2226;DHT22;1119;48.288;8.726;2023-04-07T01:36:30;6.60;99.90
2226;DHT22;1119;48.288;8.726;2023-04-07T01:39:20;6.60;99.90
2226;DHT22;1119;48.288;8.726;2023-04-07T01:42:08;6.60;99.90
2226;DHT22;1119;48.288;8.726;2023-04-07T01:44:57;6.70;99.90
2226;DHT22;1119;48.288;8.726;2023-04-07T01:47:48;6.60;99.90
2226;DHT22;1119;48.288;8.726;2023-04-07T01:50:37;6.60;99.90
2226;DHT22;1119;48.288;8.726;2023-04-07T01:53:25;6.50;99.90
2226;DHT22;1119;48.288;8.726;2023-04-07T01:56:13;6.50;99.90
2226;DHT22;1119;48.288;8.726;2023-04-07T01:59:04;6.50;99.90
2226;DHT22;1119;48.288;8.726;2023-04-07T02:01:52;6.50;99.90
2226;DHT22;1119;48.288;8.726;2023-04-07T02:04:48;6.50;99.90
2226;DHT22;1119;48.288;8.726;2023-04-07T02:07:41;6.60;99.90
2226;DHT22;1119;48.288;8.726;2023-04-07T02:10:36;6.50;99.90
2226;DHT22;1119;48.288;8.726;2023-04-07T02:13:24;6.50;99.90
2226;DHT22;1119;48.288;8.726;2023-04-07T02:16:13;6.40;99.90
2226;DHT22;1119;48.288;8.726;2023-04-07T02:19:01;6.30;99.90
2226;DHT22;1119;48.288;8.726;2023-04-07T02:21:51;6.40;99.90
2226;DHT22;1119;48.288;8.726;2023-04-07T02:24:40;6.40;99.90
2226;DHT22;1119;48.288;8.726;2023-04-07T02:27:28;6.40;99.90
2226;DHT22;1119;48.288;8.726;2023-04-07T02:30:16;6.40;99.90
2226;DHT22;1119;48.288;8.726;2023-04-07T02:33:04;6.50;99.90
2226;DHT22;1119;48.288;8.726;2023-04-07T02:35:51;6.60;99.90
2226;DHT22;1119;48.288;8.726;2023-04-07T02:38:42;6.70;99.90
2226;DHT22;1119;48.288;8.726;2023-04-07T02:41:29;6.70;99.90
2226;DHT22;1119;48.288;8.726;2023-04-07T02:44:19;6.80;99.90
2226;DHT22;1119;48.288;8.726;2023-04-07T02:47:07;6.80;99.80
2226;DHT22;1119;48.288;8.726;2023-04-07T02:49:55;6.80;99.80
2226;DHT22;1119;48.288;8.726;2023-04-07T02:52:42;6.80;99.80
2226;DHT22;1119;48.288;8.726;2023-04-07T02:55:34;6.80;99.80
2226;DHT22;1119;48.288;8.726;2023-04-07T02:58:22;6.80;99.70
2226;DHT22;1119;48.288;8.726;2023-04-07T03:01:09;6.80;99.60
2226;DHT22;1119;48.288;8.726;2023-04-07T03:03:57;6.70;99.60
2226;DHT22;1119;48.288;8.726;2023-04-07T03:06:46;6.60;99.70
2226;DHT22;1119;48.288;8.726;2023-04-07T03:09:35;6.50;99.90
2226;DHT22;1119;48.288;8.726;2023-04-07T03:12:24;6.50;99.90
2226;DHT22;1119;48.288;8.726;2023-04-07T03:15:12;6.50;99.90
2226;DHT22;1119;48.288;8.726;2023-04-07T03:18:05;6.50;99.80
2226;DHT22;1119;48.288;8.726;2023-04-07T03:20:54;6.50;99.70
2226;DHT22;1119;48.288;8.726;2023-04-07T03:23:41;6.60;99.60
2226;DHT22;1119;48.288;8.726;2023-04-07T03:26:29;6.60;99.60
2226;DHT22;1119;48.288;8.726;2023-04-07T03:29:19;6.70;99.60
2226;DHT22;1119;48.288;8.726;2023-04-07T03:32:07;6.70;99.40
2226;DHT22;1119;48.288;8.726;2023-04-07T03:34:54;6.70;99.30
2226;DHT22;1119;48.288;8.726;2023-04-07T03:37:42;6.80;99.30
2226;DHT22;1119;48.288;8.726;2023-04-07T03:40:34;6.80;99.30
2226;DHT22;1119;48.288;8.726;2023-04-07T03:43:22;6.80;99.20
2226;DHT22;1119;48.288;8.726;2023-04-07T03:46:11;6.80;99.10
2226;DHT22;1119;48.288;8.726;2023-04-07T03:48:59;6.80;99.50
2226;DHT22;1119;48.288;8.726;2023-04-07T03:51:48;6.80;99.00
2226;DHT22;1119;48.288;8.726;2023-04-07T03:54:38;6.80;98.80
2226;DHT22;1119;48.288;8.726;2023-04-07T03:57:26;6.80;98.40
2226;DHT22;1119;48.288;8.726;2023-04-07T04:00:14;6.90;98.30
2226;DHT22;1119;48.288;8.726;2023-04-07T04:03:21;6.90;98.20
2226;DHT22;1119;48.288;8.726;2023-04-07T04:06:21;6.80;98.10
2226;DHT22;1119;48.288;8.726;2023-04-07T04:09:11;6.80;98.20
2226;DHT22;1119;48.288;8.726;2023-04-07T04:12:04;6.80;98.30
2226;DHT22;1119;48.288;8.726;2023-04-07T04:14:58;6.80;98.40
2226;DHT22;1119;48.288;8.726;2023-04-07T04:17:46;6.90;98.10
2226;DHT22;1119;48.288;8.726;2023-04-07T04:20:36;6.90;97.90
2226;DHT22;1119;48.288;8.726;2023-04-07T04:23:25;6.90;98.00
2226;DHT22;1119;48.288;8.726;2023-04-07T04:26:14;6.90;97.90
2226;DHT22;1119;48.288;8.726;2023-04-07T04:29:04;6.90;97.50
2226;DHT22;1119;48.288;8.726;2023-04-07T04:31:52;7.00;97.50
2226;DHT22;1119;48.288;8.726;2023-04-07T04:34:40;7.00;97.30
2226;DHT22;1119;48.288;8.726;2023-04-07T04:37:30;7.10;97.00
2226;DHT22;1119;48.288;8.726;2023-04-07T04:40:19;7.10;97.10
2226;DHT22;1119;48.288;8.726;2023-04-07T04:43:09;7.00;96.80
2226;DHT22;1119;48.288;8.726;2023-04-07T04:45:59;6.90;96.80
2226;DHT22;1119;48.288;8.726;2023-04-07T04:48:51;6.80;96.90
2226;DHT22;1119;48.288;8.726;2023-04-07T04:51:40;6.80;97.00
2226;DHT22;1119;48.288;8.726;2023-04-07T04:54:35;6.80;97.00
2226;DHT22;1119;48.288;8.726;2023-04-07T04:57:23;6.70;97.10
2226;DHT22;1119;48.288;8.726;2023-04-07T05:00:12;6.80;97.00
2226;DHT22;1119;48.288;8.726;2023-04-07T05:03:03;6.80;96.90
2226;DHT22;1119;48.288;8.726;2023-04-07T05:05:55;6.80;96.80
2226;DHT22;1119;48.288;8.726;2023-04-07T05:08:43;6.80;96.80
2226;DHT22;1119;48.288;8.726;2023-04-07T05:11:34;6.70;96.80
2226;DHT22;1119;48.288;8.726;2023-04-07T05:17:31;6.70;97.10
2226;DHT22;1119;48.288;8.726;2023-04-07T05:20:21;6.60;97.10
2226;DHT22;1119;48.288;8.726;2023-04-07T05:23:09;6.60;97.10
2226;DHT22;1119;48.288;8.726;2023-04-07T05:25:57;6.70;97.10
2226;DHT22;1119;48.288;8.726;2023-04-07T05:28:46;6.80;97.00
2226;DHT22;1119;48.288;8.726;2023-04-07T05:31:38;6.80;97.00
2226;DHT22;1119;48.288;8.726;2023-04-07T05:34:30;7.00;97.10
2226;DHT22;1119;48.288;8.726;2023-04-07T05:37:18;7.00;97.00
2226;DHT22;1119;48.288;8.726;2023-04-07T05:40:08;7.20;96.90
2226;DHT22;1119;48.288;8.726;2023-04-07T05:42:56;7.30;96.80
2226;DHT22;1119;48.288;8.726;2023-04-07T05:45:46;7.40;96.60
2226;DHT22;1119;48.288;8.726;2023-04-07T05:48:34;7.40;96.30
2226;DHT22;1119;48.288;8.726;2023-04-07T05:51:23;7.50;96.30
2226;DHT22;1119;48.288;8.726;2023-04-07T05:54:13;7.60;96.10
2226;DHT22;1119;48.288;8.726;2023-04-07T05:57:02;7.70;96.00
2226;DHT22;1119;48.288;8.726;2023-04-07T05:59:52;7.80;95.90
2226;DHT22;1119;48.288;8.726;2023-04-07T06:02:41;8.00;95.80
2226;DHT22;1119;48.288;8.726;2023-04-07T06:05:33;8.30;95.40
2226;DHT22;1119;48.288;8.726;2023-04-07T06:08:21;8.70;95.00
2226;DHT22;1119;48.288;8.726;2023-04-07T06:11:09;9.60;93.80
2226;DHT22;1119;48.288;8.726;2023-04-07T06:13:57;10.80;91.40
2226;DHT22;1119;48.288;8.726;2023-04-07T06:16:44;11.70;87.10
2226;DHT22;1119;48.288;8.726;2023-04-07T06:19:34;11.80;82.50
2226;DHT22;1119;48.288;8.726;2023-04-07T06:22:22;11.40;81.10
2226;DHT22;1119;48.288;8.726;2023-04-07T06:25:10;11.00;82.10
2226;DHT22;1119;48.288;8.726;2023-04-07T06:27:58;10.70;83.60
2226;DHT22;1119;48.288;8.726;2023-04-07T06:30:46;10.90;84.70
2226;DHT22;1119;48.288;8.726;2023-04-07T06:33:34;11.50;83.00
2226;DHT22;1119;48.288;8.726;2023-04-07T06:36:23;12.10;80.70
2226;DHT22;1119;48.288;8.726;2023-04-07T06:39:12;13.20;76.60
2226;DHT22;1119;48.288;8.726;2023-04-07T06:42:00;13.90;72.30
2226;DHT22;1119;48.288;8.726;2023-04-07T06:44:47;14.30;68.90
2226;DHT22;1119;48.288;8.726;2023-04-07T06:47:35;14.70;67.50
2226;DHT22;1119;48.288;8.726;2023-04-07T06:50:23;15.50;64.70
2226;DHT22;1119;48.288;8.726;2023-04-07T06:53:12;15.90;61.10
2226;DHT22;1119;48.288;8.726;2023-04-07T06:56:04;16.50;59.50
2226;DHT22;1119;48.288;8.726;2023-04-07T06:58:52;17.90;56.70
2226;DHT22;1119;48.288;8.726;2023-04-07T07:01:39;18.70;53.20
2226;DHT22;1119;48.288;8.726;2023-04-07T07:04:27;18.30;51.90
2226;DHT22;1119;48.288;8.726;2023-04-07T07:07:14;17.50;52.00
2226;DHT22;1119;48.288;8.726;2023-04-07T07:10:04;16.80;52.90
2226;DHT22;1119;48.288;8.726;2023-04-07T07:12:53;16.00;54.50
2226;DHT22;1119;48.288;8.726;2023-04-07T07:15:40;15.40;55.90
2226;DHT22;1119;48.288;8.726;2023-04-07T07:18:28;14.80;56.80
2226;DHT22;1119;48.288;8.726;2023-04-07T07:21:16;14.30;57.90
2226;DHT22;1119;48.288;8.726;2023-04-07T07:24:05;13.90;58.30
2226;DHT22;1119;48.288;8.726;2023-04-07T07:26:54;13.50;59.20
2226;DHT22;1119;48.288;8.726;2023-04-07T07:29:42;13.20;60.60
2226;DHT22;1119;48.288;8.726;2023-04-07T07:32:30;12.70;61.70
2226;DHT22;1119;48.288;8.726;2023-04-07T07:35:18;12.20;63.00
2226;DHT22;1119;48.288;8.726;2023-04-07T07:38:06;11.90;64.80
2226;DHT22;1119;48.288;8.726;2023-04-07T07:40:53;11.60;65.90
2226;DHT22;1119;48.288;8.726;2023-04-07T07:43:42;11.40;66.80
2226;DHT22;1119;48.288;8.726;2023-04-07T07:46:30;11.20;68.10
2226;DHT22;1119;48.288;8.726;2023-04-07T07:49:17;11.20;68.90
2226;DHT22;1119;48.288;8.726;2023-04-07T07:52:05;11.20;69.60
2226;DHT22;1119;48.288;8.726;2023-04-07T07:54:52;11.30;70.10
2226;DHT22;1119;48.288;8.726;2023-04-07T07:57:40;11.30;70.00
2226;DHT22;1119;48.288;8.726;2023-04-07T08:00:29;11.40;70.90
2226;DHT22;1119;48.288;8.726;2023-04-07T08:03:17;11.90;71.10
2226;DHT22;1119;48.288;8.726;2023-04-07T08:06:07;12.50;68.80
2226;DHT22;1119;48.288;8.726;2023-04-07T08:08:55;13.40;67.00
2226;DHT22;1119;48.288;8.726;2023-04-07T08:11:43;14.50;64.40
2226;DHT22;1119;48.288;8.726;2023-04-07T08:14:33;15.70;61.20
2226;DHT22;1119;48.288;8.726;2023-04-07T08:17:22;16.70;57.80
2226;DHT22;1119;48.288;8.726;2023-04-07T08:20:10;17.50;56.30
2226;DHT22;1119;48.288;8.726;2023-04-07T08:22:58;18.20;53.60
2226;DHT22;1119;48.288;8.726;2023-04-07T08:25:47;18.20;52.70
2226;DHT22;1119;48.288;8.726;2023-04-07T08:28:34;18.00;52.40
2226;DHT22;1119;48.288;8.726;2023-04-07T08:31:22;17.20;52.40
2226;DHT22;1119;48.288;8.726;2023-04-07T08:34:11;17.20;54.10
2226;DHT22;1119;48.288;8.726;2023-04-07T08:36:59;17.10;54.00
2226;DHT22;1119;48.288;8.726;2023-04-07T08:39:46;17.50;54.50
2226;DHT22;1119;48.288;8.726;2023-04-07T08:42:34;18.10;52.20
2226;DHT22;1119;48.288;8.726;2023-04-07T08:45:27;18.10;51.30
2226;DHT22;1119;48.288;8.726;2023-04-07T08:48:16;17.70;52.20
2226;DHT22;1119;48.288;8.726;2023-04-07T08:51:07;17.10;53.00
2226;DHT22;1119;48.288;8.726;2023-04-07T08:54:02;16.80;53.40
2226;DHT22;1119;48.288;8.726;2023-04-07T08:56:52;16.40;53.90
2226;DHT22;1119;48.288;8.726;2023-04-07T08:59:41;15.80;54.30
2226;DHT22;1119;48.288;8.726;2023-04-07T09:02:32;15.20;55.50
2226;DHT22;1119;48.288;8.726;2023-04-07T09:05:21;14.90;56.60
2226;DHT22;1119;48.288;8.726;2023-04-07T09:08:11;14.60;57.10
2226;DHT22;1119;48.288;8.726;2023-04-07T09:10:59;14.40;58.10
2226;DHT22;1119;48.288;8.726;2023-04-07T09:13:48;14.20;57.80
2226;DHT22;1119;48.288;8.726;2023-04-07T09:16:36;13.70;58.90
2226;DHT22;1119;48.288;8.726;2023-04-07T09:19:26;13.60;59.40
2226;DHT22;1119;48.288;8.726;2023-04-07T09:22:33;13.50;60.60
2226;DHT22;1119;48.288;8.726;2023-04-07T09:25:23;14.10;60.20
2226;DHT22;1119;48.288;8.726;2023-04-07T09:28:13;14.40;58.10
2226;DHT22;1119;48.288;8.726;2023-04-07T09:31:00;14.10;57.60
2226;DHT22;1119;48.288;8.726;2023-04-07T09:33:48;13.90;58.10
2226;DHT22;1119;48.288;8.726;2023-04-07T09:36:40;13.80;59.70
2226;DHT22;1119;48.288;8.726;2023-04-07T09:39:28;13.60;60.90
2226;DHT22;1119;48.288;8.726;2023-04-07T09:42:18;13.60;60.70
2226;DHT22;1119;48.288;8.726;2023-04-07T09:45:07;13.80;62.70
2226;DHT22;1119;48.288;8.726;2023-04-07T09:47:55;14.10;62.40
2226;DHT22;1119;48.288;8.726;2023-04-07T09:50:42;12.30;58.60
2226;DHT22;1119;48.288;8.726;2023-04-07T09:53:45;13.60;60.60
2226;DHT22;1119;48.288;8.726;2023-04-07T09:56:33;13.20;61.60
2226;DHT22;1119;48.288;8.726;2023-04-07T09:59:24;12.90;63.70
2226;DHT22;1119;48.288;8.726;2023-04-07T10:02:12;12.70;64.20
2226;DHT22;1119;48.288;8.726;2023-04-07T10:05:00;12.70;64.70
2226;DHT22;1119;48.288;8.726;2023-04-07T10:07:48;12.70;64.40
2226;DHT22;1119;48.288;8.726;2023-04-07T10:10:40;12.70;63.90
2226;DHT22;1119;48.288;8.726;2023-04-07T10:13:29;12.70;62.90
2226;DHT22;1119;48.288;8.726;2023-04-07T10:16:21;12.50;61.90
2226;DHT22;1119;48.288;8.726;2023-04-07T10:19:09;12.40;63.80
2226;DHT22;1119;48.288;8.726;2023-04-07T10:21:58;12.50;63.90
2226;DHT22;1119;48.288;8.726;2023-04-07T10:24:53;12.40;63.00
2226;DHT22;1119;48.288;8.726;2023-04-07T10:27:48;12.40;63.80
2226;DHT22;1119;48.288;8.726;2023-04-07T10:30:38;12.60;61.30
2226;DHT22;1119;48.288;8.726;2023-04-07T10:33:48;12.80;61.50
2226;DHT22;1119;48.288;8.726;2023-04-07T10:37:10;12.90;61.80
2226;DHT22;1119;48.288;8.726;2023-04-07T10:40:26;13.00;64.00
2226;DHT22;1119;48.288;8.726;2023-04-07T10:43:38;13.10;63.30
2226;DHT22;1119;48.288;8.726;2023-04-07T10:47:01;13.20;62.20
2226;DHT22;1119;48.288;8.726;2023-04-07T10:50:19;13.20;61.40
2226;DHT22;1119;48.288;8.726;2023-04-07T10:53:09;13.20;61.60
2226;DHT22;1119;48.288;8.726;2023-04-07T10:55:58;13.30;61.20
2226;DHT22;1119;48.288;8.726;2023-04-07T10:58:46;13.30;61.50
2226;DHT22;1119;48.288;8.726;2023-04-07T11:02:32;13.30;61.90
2226;DHT22;1119;48.288;8.726;2023-04-07T11:05:21;13.40;61.80
2226;DHT22;1119;48.288;8.726;2023-04-07T11:08:08;13.30;62.10
2226;DHT22;1119;48.288;8.726;2023-04-07T11:10:56;13.20;64.60
2226;DHT22;1119;48.288;8.726;2023-04-07T11:13:45;12.90;64.80
2226;DHT22;1119;48.288;8.726;2023-04-07T11:16:38;12.50;65.00
2226;DHT22;1119;48.288;8.726;2023-04-07T11:19:28;12.40;66.50
2226;DHT22;1119;48.288;8.726;2023-04-07T11:22:17;12.00;65.40
2226;DHT22;1119;48.288;8.726;2023-04-07T11:25:19;11.80;68.80
2226;DHT22;1119;48.288;8.726;2023-04-07T11:28:09;11.30;72.30
2226;DHT22;1119;48.288;8.726;2023-04-07T11:30:57;11.00;74.90
2226;DHT22;1119;48.288;8.726;2023-04-07T11:33:51;10.70;78.00
2226;DHT22;1119;48.288;8.726;2023-04-07T11:36:41;10.70;81.10
2226;DHT22;1119;48.288;8.726;2023-04-07T11:39:29;10.80;81.20
2226;DHT22;1119;48.288;8.726;2023-04-07T11:42:30;11.00;81.20
2226;DHT22;1119;48.288;8.726;2023-04-07T11:45:19;11.10;77.10
2226;DHT22;1119;48.288;8.726;2023-04-07T11:48:31;11.30;78.70
2226;DHT22;1119;48.288;8.726;2023-04-07T11:51:21;11.50;77.40
2226;DHT22;1119;48.288;8.726;2023-04-07T11:54:11;11.80;77.30
2226;DHT22;1119;48.288;8.726;2023-04-07T11:56:59;11.90;75.30
2226;DHT22;1119;48.288;8.726;2023-04-07T11:59:47;12.00;76.10
2226;DHT22;1119;48.288;8.726;2023-04-07T12:02:35;11.90;75.20
2226;DHT22;1119;48.288;8.726;2023-04-07T12:05:22;11.60;75.30
2226;DHT22;1119;48.288;8.726;2023-04-07T12:08:10;11.60;77.20
2226;DHT22;1119;48.288;8.726;2023-04-07T12:11:03;11.50;75.70
2226;DHT22;1119;48.288;8.726;2023-04-07T12:13:51;11.60;75.80
2226;DHT22;1119;48.288;8.726;2023-04-07T12:16:39;11.70;73.90
2226;DHT22;1119;48.288;8.726;2023-04-07T12:19:29;11.90;75.00
2226;DHT22;1119;48.288;8.726;2023-04-07T12:22:17;12.00;73.80
2226;DHT22;1119;48.288;8.726;2023-04-07T12:25:06;12.10;72.30
2226;DHT22;1119;48.288;8.726;2023-04-07T12:27:56;12.20;73.00
2226;DHT22;1119;48.288;8.726;2023-04-07T12:30:43;12.00;74.00
2226;DHT22;1119;48.288;8.726;2023-04-07T12:33:31;11.90;74.50
2226;DHT22;1119;48.288;8.726;2023-04-07T12:36:19;11.80;75.40
2226;DHT22;1119;48.288;8.726;2023-04-07T12:39:06;11.70;75.60
2226;DHT22;1119;48.288;8.726;2023-04-07T12:41:54;11.50;75.10
2226;DHT22;1119;48.288;8.726;2023-04-07T12:44:44;11.30;75.30
2226;DHT22;1119;48.288;8.726;2023-04-07T12:47:32;11.00;74.60
2226;DHT22;1119;48.288;8.726;2023-04-07T12:50:19;10.90;75.60
2226;DHT22;1119;48.288;8.726;2023-04-07T12:53:07;10.90;74.50
2226;DHT22;1119;48.288;8.726;2023-04-07T12:55:54;10.90;74.50
2226;DHT22;1119;48.288;8.726;2023-04-07T12:58:43;11.10;75.00
2226;DHT22;1119;48.288;8.726;2023-04-07T13:01:32;11.30;74.30
2226;DHT22;1119;48.288;8.726;2023-04-07T13:04:20;11.40;72.60
2226;DHT22;1119;48.288;8.726;2023-04-07T13:07:09;11.60;71.60
2226;DHT22;1119;48.288;8.726;2023-04-07T13:09:56;11.80;71.60
2226;DHT22;1119;48.288;8.726;2023-04-07T13:12:44;12.00;69.80
2226;DHT22;1119;48.288;8.726;2023-04-07T13:15:32;11.80;67.80
2226;DHT22;1119;48.288;8.726;2023-04-07T13:18:22;11.70;68.40
2226;DHT22;1119;48.288;8.726;2023-04-07T13:21:09;11.70;70.30
2226;DHT22;1119;48.288;8.726;2023-04-07T13:23:57;11.70;70.60
2226;DHT22;1119;48.288;8.726;2023-04-07T13:26:45;11.90;70.40
2226;DHT22;1119;48.288;8.726;2023-04-07T13:29:32;12.00;69.90
2226;DHT22;1119;48.288;8.726;2023-04-07T13:32:20;12.20;70.60
2226;DHT22;1119;48.288;8.726;2023-04-07T13:35:09;12.40;68.80
2226;DHT22;1119;48.288;8.726;2023-04-07T13:37:57;12.60;68.20
2226;DHT22;1119;48.288;8.726;2023-04-07T13:40:45;12.60;66.40
2226;DHT22;1119;48.288;8.726;2023-04-07T13:43:34;12.80;67.40
2226;DHT22;1119;48.288;8.726;2023-04-07T13:46:22;12.70;66.50
2226;DHT22;1119;48.288;8.726;2023-04-07T13:49:09;12.60;65.50
2226;DHT22;1119;48.288;8.726;2023-04-07T13:51:58;12.60;65.80
2226;DHT22;1119;48.288;8.726;2023-04-07T13:54:46;12.50;65.30
2226;DHT22;1119;48.288;8.726;2023-04-07T13:57:34;12.00;68.30
2226;DHT22;1119;48.288;8.726;2023-04-07T14:00:22;11.70;70.70
2226;DHT22;1119;48.288;8.726;2023-04-07T14:03:09;11.50;71.70
2226;DHT22;1119;48.288;8.726;2023-04-07T14:05:57;11.10;73.20
2226;DHT22;1119;48.288;8.726;2023-04-07T14:08:47;10.70;74.40
2226;DHT22;1119;48.288;8.726;2023-04-07T14:11:35;10.50;75.60
2226;DHT22;1119;48.288;8.726;2023-04-07T14:14:23;10.20;76.80
2226;DHT22;1119;48.288;8.726;2023-04-07T14:17:10;9.90;78.60
2226;DHT22;1119;48.288;8.726;2023-04-07T14:19:58;9.60;79.50
2226;DHT22;1119;48.288;8.726;2023-04-07T14:22:46;9.20;81.90
2226;DHT22;1119;48.288;8.726;2023-04-07T14:25:36;9.00;84.00
2226;DHT22;1119;48.288;8.726;2023-04-07T14:28:25;8.80;86.10
2226;DHT22;1119;48.288;8.726;2023-04-07T14:31:14;8.60;88.40
2226;DHT22;1119;48.288;8.726;2023-04-07T14:34:02;8.50;89.30
2226;DHT22;1119;48.288;8.726;2023-04-07T14:36:53;8.40;90.60
2226;DHT22;1119;48.288;8.726;2023-04-07T14:39:41;8.10;91.50
2226;DHT22;1119;48.288;8.726;2023-04-07T14:42:30;8.10;92.60
2226;DHT22;1119;48.288;8.726;2023-04-07T14:45:18;8.10;93.60
2226;DHT22;1119;48.288;8.726;2023-04-07T14:48:06;8.00;94.70
2226;DHT22;1119;48.288;8.726;2023-04-07T14:53:43;8.00;95.90
2226;DHT22;1119;48.288;8.726;2023-04-07T14:56:30;8.10;96.40
2226;DHT22;1119;48.288;8.726;2023-04-07T14:59:19;8.20;96.20
2226;DHT22;1119;48.288;8.726;2023-04-07T15:02:07;8.10;96.80
2226;DHT22;1119;48.288;8.726;2023-04-07T15:04:55;8.00;97.90
2226;DHT22;1119;48.288;8.726;2023-04-07T15:07:42;7.90;98.80
2226;DHT22;1119;48.288;8.726;2023-04-07T15:10:31;7.90;99.00
2226;DHT22;1119;48.288;8.726;2023-04-07T15:13:20;7.90;99.30
2226;DHT22;1119;48.288;8.726;2023-04-07T15:16:11;7.90;99.30
2226;DHT22;1119;48.288;8.726;2023-04-07T15:19:00;7.90;99.50
2226;DHT22;1119;48.288;8.726;2023-04-07T15:21:48;8.00;99.60
2226;DHT22;1119;48.288;8.726;2023-04-07T15:24:35;8.10;99.90
2226;DHT22;1119;48.288;8.726;2023-04-07T15:27:23;8.20;99.60
2226;DHT22;1119;48.288;8.726;2023-04-07T15:30:11;8.40;99.60
2226;DHT22;1119;48.288;8.726;2023-04-07T15:33:02;8.50;98.70
2226;DHT22;1119;48.288;8.726;2023-04-07T15:35:49;8.70;98.40
2226;DHT22;1119;48.288;8.726;2023-04-07T15:38:37;8.80;98.30
2226;DHT22;1119;48.288;8.726;2023-04-07T15:41:25;8.90;97.40
2226;DHT22;1119;48.288;8.726;2023-04-07T15:44:16;8.80;97.10
2226;DHT22;1119;48.288;8.726;2023-04-07T15:47:04;8.90;97.50
2226;DHT22;1119;48.288;8.726;2023-04-07T15:49:54;9.00;97.30
2226;DHT22;1119;48.288;8.726;2023-04-07T15:52:41;9.00;96.80
2226;DHT22;1119;48.288;8.726;2023-04-07T15:55:32;8.90;96.50
2226;DHT22;1119;48.288;8.726;2023-04-07T15:58:20;8.80;96.90
2226;DHT22;1119;48.288;8.726;2023-04-07T16:01:08;8.80;97.00
2226;DHT22;1119;48.288;8.726;2023-04-07T16:03:56;8.70;97.00
2226;DHT22;1119;48.288;8.726;2023-04-07T16:06:45;8.60;97.10
2226;DHT22;1119;48.288;8.726;2023-04-07T16:09:32;8.50;97.40
2226;DHT22;1119;48.288;8.726;2023-04-07T16:12:20;8.50;97.50
2226;DHT22;1119;48.288;8.726;2023-04-07T16:15:08;8.60;97.20
2226;DHT22;1119;48.288;8.726;2023-04-07T16:17:56;8.60;96.80
2226;DHT22;1119;48.288;8.726;2023-04-07T16:20:44;8.70;97.00
2226;DHT22;1119;48.288;8.726;2023-04-07T16:23:33;8.60;96.70
2226;DHT22;1119;48.288;8.726;2023-04-07T16:26:21;8.60;96.80
2226;DHT22;1119;48.288;8.726;2023-04-07T16:29:08;8.50;96.60
2226;DHT22;1119;48.288;8.726;2023-04-07T16:31:56;8.50;96.40
2226;DHT22;1119;48.288;8.726;2023-04-07T16:34:43;8.40;96.80
2226;DHT22;1119;48.288;8.726;2023-04-07T16:37:31;8.30;97.30
2226;DHT22;1119;48.288;8.726;2023-04-07T16:40:20;8.20;97.80
2226;DHT22;1119;48.288;8.726;2023-04-07T16:43:08;8.10;98.00
2226;DHT22;1119;48.288;8.726;2023-04-07T16:45:56;8.00;98.50
2226;DHT22;1119;48.288;8.726;2023-04-07T16:48:45;7.90;99.00
2226;DHT22;1119;48.288;8.726;2023-04-07T16:51:32;7.90;99.50
2226;DHT22;1119;48.288;8.726;2023-04-07T16:54:20;7.80;99.90
2226;DHT22;1119;48.288;8.726;2023-04-07T16:57:09;7.80;99.90
2226;DHT22;1119;48.288;8.726;2023-04-07T16:59:58;7.70;99.90
2226;DHT22;1119;48.288;8.726;2023-04-07T17:02:45;7.80;99.90
2226;DHT22;1119;48.288;8.726;2023-04-07T17:05:33;7.80;99.90
2226;DHT22;1119;48.288;8.726;2023-04-07T17:08:20;7.70;99.90
2226;DHT22;1119;48.288;8.726;2023-04-07T17:11:12;7.70;99.90
2226;DHT22;1119;48.288;8.726;2023-04-07T17:17:10;7.60;99.90
2226;DHT22;1119;48.288;8.726;2023-04-07T17:19:58;7.60;99.90
2226;DHT22;1119;48.288;8.726;2023-04-07T17:22:46;7.70;99.90
2226;DHT22;1119;48.288;8.726;2023-04-07T17:25:34;7.70;99.90
2226;DHT22;1119;48.288;8.726;2023-04-07T17:28:22;7.70;99.90
2226;DHT22;1119;48.288;8.726;2023-04-07T17:31:11;7.70;99.90
2226;DHT22;1119;48.288;8.726;2023-04-07T17:34:00;7.70;99.90
2226;DHT22;1119;48.288;8.726;2023-04-07T17:36:48;7.70;99.90
2226;DHT22;1119;48.288;8.726;2023-04-07T17:39:36;7.70;99.90
2226;DHT22;1119;48.288;8.726;2023-04-07T17:42:24;7.70;99.90
2226;DHT22;1119;48.288;8.726;2023-04-07T17:45:11;7.70;99.90
2226;DHT22;1119;48.288;8.726;2023-04-07T17:47:59;7.90;99.90
2226;DHT22;1119;48.288;8.726;2023-04-07T17:50:50;7.90;99.90
2226;DHT22;1119;48.288;8.726;2023-04-07T17:53:37;7.90;99.90
2226;DHT22;1119;48.288;8.726;2023-04-07T17:56:25;8.00;99.90
2226;DHT22;1119;48.288;8.726;2023-04-07T17:59:13;8.00;99.90
2226;DHT22;1119;48.288;8.726;2023-04-07T18:02:01;8.00;99.90
2226;DHT22;1119;48.288;8.726;2023-04-07T18:04:53;8.00;99.90
2226;DHT22;1119;48.288;8.726;2023-04-07T18:07:47;8.00;99.90
2226;DHT22;1119;48.288;8.726;2023-04-07T18:10:35;8.00;99.90
2226;DHT22;1119;48.288;8.726;2023-04-07T18:13:22;7.90;99.90
2226;DHT22;1119;48.288;8.726;2023-04-07T18:16:10;7.90;99.90
2226;DHT22;1119;48.288;8.726;2023-04-07T18:19:02;7.80;99.90
2226;DHT22;1119;48.288;8.726;2023-04-07T18:21:49;7.70;99.90
2226;DHT22;1119;48.288;8.726;2023-04-07T18:24:39;7.70;99.90
2226;DHT22;1119;48.288;8.726;2023-04-07T18:27:26;7.80;99.90
2226;DHT22;1119;48.288;8.726;2023-04-07T18:30:14;7.80;99.90
2226;DHT22;1119;48.288;8.726;2023-04-07T18:33:02;7.80;99.90
2226;DHT22;1119;48.288;8.726;2023-04-07T18:35:50;7.70;99.90
2226;DHT22;1119;48.288;8.726;2023-04-07T18:38:37;7.70;99.90
2226;DHT22;1119;48.288;8.726;2023-04-07T18:41:27;7.70;99.90
2226;DHT22;1119;48.288;8.726;2023-04-07T18:44:14;7.70;99.90
2226;DHT22;1119;48.288;8.726;2023-04-07T18:47:02;7.80;99.90
2226;DHT22;1119;48.288;8.726;2023-04-07T18:49:50;7.80;99.90